sensor_id;sensor_type;location;lat;lon;timestamp;pressure;altitude;pressure_sealevel;temperature;humidity
65897;BME280;52677;50.898;10.854;2022-11-20T00:00:22;98160.50;;;-9.42;100.00
65897;BME280;52677;50.898;10.854;2022-11-20T00:02:23;98166.22;;;-9.28;100.00
65897;BME280;52677;50.898;10.854;2022-11-20T00:04:23;98163.75;;;-9.35;100.00
65897;BME280;52677;50.898;10.854;2022-11-20T00:06:24;98152.00;;;-9.29;100.00
65897;BME280;52677;50.898;10.854;2022-11-20T00:08:25;98155.38;;;-9.07;100.00
65897;BME280;52677;50.898;10.854;2022-11-20T00:10:25;98152.22;;;-8.98;100.00
65897;BME280;52677;50.898;10.854;2022-11-20T00:12:26;98153.28;;;-8.94;100.00
65897;BME280;52677;50.898;10.854;2022-11-20T00:14:26;98147.13;;;-8.95;100.00
65897;BME280;52677;50.898;10.854;2022-11-20T00:16:28;98153.88;;;-8.92;100.00
65897;BME280;52677;50.898;10.854;2022-11-20T00:18:30;98149.56;;;-8.93;100.00
65897;BME280;52677;50.898;10.854;2022-11-20T00:20:30;98141.28;;;-8.87;100.00
65897;BME280;52677;50.898;10.854;2022-11-20T00:22:30;98135.69;;;-8.80;100.00
65897;BME280;52677;50.898;10.854;2022-11-20T00:24:31;98137.25;;;-8.89;100.00
65897;BME280;52677;50.898;10.854;2022-11-20T00:26:31;98134.28;;;-8.93;100.00
65897;BME280;52677;50.898;10.854;2022-11-20T00:28:32;98130.47;;;-9.02;100.00
65897;BME280;52677;50.898;10.854;2022-11-20T00:30:32;98137.09;;;-9.15;100.00
65897;BME280;52677;50.898;10.854;2022-11-20T00:32:32;98133.78;;;-9.32;100.00
65897;BME280;52677;50.898;10.854;2022-11-20T00:34:33;98135.41;;;-9.31;100.00
65897;BME280;52677;50.898;10.854;2022-11-20T00:36:34;98129.03;;;-9.20;100.00
65897;BME280;52677;50.898;10.854;2022-11-20T00:38:34;98136.84;;;-9.13;100.00
65897;BME280;52677;50.898;10.854;2022-11-20T00:40:35;98146.44;;;-9.22;100.00
65897;BME280;52677;50.898;10.854;2022-11-20T00:42:35;98142.09;;;-9.33;100.00
65897;BME280;52677;50.898;10.854;2022-11-20T00:44:35;98145.00;;;-9.35;100.00
65897;BME280;52677;50.898;10.854;2022-11-20T00:46:35;98136.75;;;-9.28;100.00
65897;BME280;52677;50.898;10.854;2022-11-20T00:48:36;98141.84;;;-9.27;100.00
65897;BME280;52677;50.898;10.854;2022-11-20T00:50:36;98136.47;;;-9.32;100.00
65897;BME280;52677;50.898;10.854;2022-11-20T00:52:37;98146.06;;;-9.36;100.00
65897;BME280;52677;50.898;10.854;2022-11-20T00:54:37;98142.03;;;-9.39;100.00
65897;BME280;52677;50.898;10.854;2022-11-20T00:56:37;98130.31;;;-9.32;100.00
65897;BME280;52677;50.898;10.854;2022-11-20T00:58:39;98131.03;;;-9.42;100.00
65897;BME280;52677;50.898;10.854;2022-11-20T01:00:40;98136.41;;;-9.42;100.00
65897;BME280;52677;50.898;10.854;2022-11-20T01:02:40;98140.06;;;-9.53;100.00
65897;BME280;52677;50.898;10.854;2022-11-20T01:04:40;98122.56;;;-9.66;100.00
65897;BME280;52677;50.898;10.854;2022-11-20T01:06:41;98131.09;;;-9.69;100.00
65897;BME280;52677;50.898;10.854;2022-11-20T01:08:41;98127.81;;;-9.76;100.00
65897;BME280;52677;50.898;10.854;2022-11-20T01:10:42;98139.25;;;-9.86;100.00
65897;BME280;52677;50.898;10.854;2022-11-20T01:12:42;98135.41;;;-9.95;100.00
65897;BME280;52677;50.898;10.854;2022-11-20T01:14:43;98135.06;;;-10.04;100.00
65897;BME280;52677;50.898;10.854;2022-11-20T01:16:48;98144.41;;;-10.06;100.00
65897;BME280;52677;50.898;10.854;2022-11-20T01:18:52;98140.97;;;-10.02;100.00
65897;BME280;52677;50.898;10.854;2022-11-20T01:20:53;98145.22;;;-10.06;100.00
65897;BME280;52677;50.898;10.854;2022-11-20T01:22:53;98150.03;;;-10.08;100.00
65897;BME280;52677;50.898;10.854;2022-11-20T01:24:53;98145.47;;;-9.80;100.00
65897;BME280;52677;50.898;10.854;2022-11-20T01:26:53;98141.56;;;-9.68;100.00
65897;BME280;52677;50.898;10.854;2022-11-20T01:28:55;98144.06;;;-9.56;100.00
65897;BME280;52677;50.898;10.854;2022-11-20T01:30:56;98145.97;;;-9.51;100.00
65897;BME280;52677;50.898;10.854;2022-11-20T01:32:56;98146.31;;;-9.43;100.00
65897;BME280;52677;50.898;10.854;2022-11-20T01:34:57;98139.16;;;-9.27;100.00
65897;BME280;52677;50.898;10.854;2022-11-20T01:36:57;98137.06;;;-9.25;100.00
65897;BME280;52677;50.898;10.854;2022-11-20T01:39:00;98139.16;;;-9.27;100.00
65897;BME280;52677;50.898;10.854;2022-11-20T01:41:01;98137.53;;;-9.33;100.00
65897;BME280;52677;50.898;10.854;2022-11-20T01:43:12;98137.53;;;-9.33;100.00
65897;BME280;52677;50.898;10.854;2022-11-20T01:46:03;98140.47;;;-9.35;100.00
65897;BME280;52677;50.898;10.854;2022-11-20T01:48:02;98137.69;;;-9.45;100.00
65897;BME280;52677;50.898;10.854;2022-11-20T01:52:16;98124.94;;;-9.32;100.00
65897;BME280;52677;50.898;10.854;2022-11-20T01:54:25;98130.09;;;-9.26;100.00
65897;BME280;52677;50.898;10.854;2022-11-20T01:56:30;98129.03;;;-9.20;100.00
65897;BME280;52677;50.898;10.854;2022-11-20T01:58:35;98118.56;;;-9.26;100.00
65897;BME280;52677;50.898;10.854;2022-11-20T02:00:40;98120.66;;;-9.33;100.00
65897;BME280;52677;50.898;10.854;2022-11-20T02:02:43;98132.66;;;-9.36;100.00
65897;BME280;52677;50.898;10.854;2022-11-20T02:04:47;98125.16;;;-9.39;100.00
65897;BME280;52677;50.898;10.854;2022-11-20T02:06:51;98124.88;;;-9.43;100.00
65897;BME280;52677;50.898;10.854;2022-11-20T02:08:55;98119.47;;;-9.48;100.00
65897;BME280;52677;50.898;10.854;2022-11-20T02:10:55;98115.44;;;-9.50;100.00
65897;BME280;52677;50.898;10.854;2022-11-20T02:12:56;98119.34;;;-9.63;100.00
65897;BME280;52677;50.898;10.854;2022-11-20T02:15:15;98112.13;;;-9.68;100.00
65897;BME280;52677;50.898;10.854;2022-11-20T02:17:15;98108.56;;;-9.73;100.00
65897;BME280;52677;50.898;10.854;2022-11-20T02:19:26;98102.97;;;-9.72;100.00
65897;BME280;52677;50.898;10.854;2022-11-20T02:21:38;98099.19;;;-9.76;100.00
65897;BME280;52677;50.898;10.854;2022-11-20T02:24:09;98099.75;;;-9.74;100.00
65897;BME280;52677;50.898;10.854;2022-11-20T02:26:13;98086.69;;;-9.65;100.00
65897;BME280;52677;50.898;10.854;2022-11-20T02:28:16;98088.78;;;-9.72;100.00
65897;BME280;52677;50.898;10.854;2022-11-20T02:30:17;98082.81;;;-9.84;100.00
65897;BME280;52677;50.898;10.854;2022-11-20T02:32:23;98093.06;;;-9.71;100.00
65897;BME280;52677;50.898;10.854;2022-11-20T02:34:24;98083.88;;;-9.80;100.00
65897;BME280;52677;50.898;10.854;2022-11-20T02:36:27;98086.84;;;-9.77;100.00
65897;BME280;52677;50.898;10.854;2022-11-20T02:38:28;98092.19;;;-9.77;100.00
65897;BME280;52677;50.898;10.854;2022-11-20T02:40:28;98086.03;;;-9.82;100.00
65897;BME280;52677;50.898;10.854;2022-11-20T02:42:29;98085.72;;;-9.86;100.00
65897;BME280;52677;50.898;10.854;2022-11-20T02:44:29;98077.78;;;-9.76;100.00
65897;BME280;52677;50.898;10.854;2022-11-20T02:46:30;98085.56;;;-9.69;100.00
65897;BME280;52677;50.898;10.854;2022-11-20T02:48:31;98080.47;;;-9.76;100.00
65897;BME280;52677;50.898;10.854;2022-11-20T02:50:31;98092.78;;;-9.75;100.00
65897;BME280;52677;50.898;10.854;2022-11-20T02:52:31;98084.22;;;-9.72;100.00
65897;BME280;52677;50.898;10.854;2022-11-20T02:54:32;98089.03;;;-9.74;100.00
65897;BME280;52677;50.898;10.854;2022-11-20T02:56:32;98089.50;;;-9.82;100.00
65897;BME280;52677;50.898;10.854;2022-11-20T02:58:32;98081.59;;;-9.99;100.00
65897;BME280;52677;50.898;10.854;2022-11-20T03:00:33;98077.44;;;-9.84;100.00
65897;BME280;52677;50.898;10.854;2022-11-20T03:02:33;98078.00;;;-9.82;100.00
65897;BME280;52677;50.898;10.854;2022-11-20T03:04:34;98085.28;;;-9.73;100.00
65897;BME280;52677;50.898;10.854;2022-11-20T03:06:34;98077.19;;;-9.83;100.00
65897;BME280;52677;50.898;10.854;2022-11-20T03:08:35;98081.97;;;-9.85;100.00
65897;BME280;52677;50.898;10.854;2022-11-20T03:10:35;98070.09;;;-9.99;100.00
65897;BME280;52677;50.898;10.854;2022-11-20T03:12:36;98065.94;;;-10.17;100.00
65897;BME280;52677;50.898;10.854;2022-11-20T03:14:36;98084.47;;;-10.37;100.00
65897;BME280;52677;50.898;10.854;2022-11-20T03:16:36;98076.63;;;-10.49;100.00
65897;BME280;52677;50.898;10.854;2022-11-20T03:18:37;98076.31;;;-10.53;100.00
65897;BME280;52677;50.898;10.854;2022-11-20T03:20:37;98072.69;;;-10.41;100.00
65897;BME280;52677;50.898;10.854;2022-11-20T03:22:38;98078.88;;;-10.36;100.00
65897;BME280;52677;50.898;10.854;2022-11-20T03:24:38;98069.97;;;-10.46;100.00
65897;BME280;52677;50.898;10.854;2022-11-20T03:26:38;98078.97;;;-10.53;100.00
65897;BME280;52677;50.898;10.854;2022-11-20T03:28:40;98070.97;;;-10.53;100.00
65897;BME280;52677;50.898;10.854;2022-11-20T03:30:40;98071.28;;;-10.49;100.00
65897;BME280;52677;50.898;10.854;2022-11-20T03:32:41;98075.47;;;-10.58;100.00
65897;BME280;52677;50.898;10.854;2022-11-20T03:34:41;98078.38;;;-10.60;100.00
65897;BME280;52677;50.898;10.854;2022-11-20T03:36:42;98080.91;;;-10.48;100.00
65897;BME280;52677;50.898;10.854;2022-11-20T03:38:43;98072.53;;;-10.30;100.00
65897;BME280;52677;50.898;10.854;2022-11-20T03:40:43;98067.97;;;-10.29;100.00
65897;BME280;52677;50.898;10.854;2022-11-20T03:42:43;98072.03;;;-10.22;100.00
65897;BME280;52677;50.898;10.854;2022-11-20T03:44:46;98071.56;;;-10.13;100.00
65897;BME280;52677;50.898;10.854;2022-11-20T03:46:47;98062.00;;;-10.04;100.00
65897;BME280;52677;50.898;10.854;2022-11-20T03:48:48;98061.00;;;-9.98;100.00
65897;BME280;52677;50.898;10.854;2022-11-20T03:50:48;98055.44;;;-9.92;100.00
65897;BME280;52677;50.898;10.854;2022-11-20T03:52:49;98053.03;;;-9.88;100.00
65897;BME280;52677;50.898;10.854;2022-11-20T03:54:49;98052.53;;;-9.85;100.00
65897;BME280;52677;50.898;10.854;2022-11-20T03:56:50;98049.13;;;-9.75;100.00
65897;BME280;52677;50.898;10.854;2022-11-20T03:58:50;98051.25;;;-9.77;100.00
65897;BME280;52677;50.898;10.854;2022-11-20T04:00:50;98052.03;;;-9.77;100.00
65897;BME280;52677;50.898;10.854;2022-11-20T04:02:51;98049.63;;;-9.78;100.00
65897;BME280;52677;50.898;10.854;2022-11-20T04:04:51;98060.38;;;-9.73;100.00
65897;BME280;52677;50.898;10.854;2022-11-20T04:06:51;98053.19;;;-9.68;100.00
65897;BME280;52677;50.898;10.854;2022-11-20T04:08:54;98060.88;;;-9.76;100.00
65897;BME280;52677;50.898;10.854;2022-11-20T04:10:55;98065.34;;;-9.87;100.00
65897;BME280;52677;50.898;10.854;2022-11-20T04:12:55;98064.06;;;-10.16;100.00
65897;BME280;52677;50.898;10.854;2022-11-20T04:14:55;98067.84;;;-10.12;100.00
65897;BME280;52677;50.898;10.854;2022-11-20T04:16:56;98054.25;;;-10.06;100.00
65897;BME280;52677;50.898;10.854;2022-11-20T04:18:58;98058.81;;;-10.01;100.00
65897;BME280;52677;50.898;10.854;2022-11-20T04:20:59;98062.22;;;-10.11;100.00
65897;BME280;52677;50.898;10.854;2022-11-20T04:22:59;98067.38;;;-10.36;100.00
65897;BME280;52677;50.898;10.854;2022-11-20T04:25:00;98069.59;;;-10.28;100.00
65897;BME280;52677;50.898;10.854;2022-11-20T04:27:00;98061.88;;;-10.20;100.00
65897;BME280;52677;50.898;10.854;2022-11-20T04:29:00;98066.63;;;-10.32;100.00
65897;BME280;52677;50.898;10.854;2022-11-20T04:33:04;98060.97;;;-10.62;100.00
65897;BME280;52677;50.898;10.854;2022-11-20T04:35:04;98069.25;;;-10.64;100.00
65897;BME280;52677;50.898;10.854;2022-11-20T04:37:05;98076.34;;;-10.74;100.00
65897;BME280;52677;50.898;10.854;2022-11-20T04:39:06;98075.91;;;-10.66;100.00
65897;BME280;52677;50.898;10.854;2022-11-20T04:41:08;98074.22;;;-10.51;100.00
65897;BME280;52677;50.898;10.854;2022-11-20T04:43:11;98070.56;;;-10.39;100.00
65897;BME280;52677;50.898;10.854;2022-11-20T04:45:11;98070.22;;;-10.48;100.00
65897;BME280;52677;50.898;10.854;2022-11-20T04:47:11;98070.66;;;-10.56;100.00
65897;BME280;52677;50.898;10.854;2022-11-20T04:49:12;98067.66;;;-10.60;100.00
65897;BME280;52677;50.898;10.854;2022-11-20T04:51:12;98070.97;;;-10.53;100.00
65897;BME280;52677;50.898;10.854;2022-11-20T04:53:13;98062.75;;;-10.46;100.00
65897;BME280;52677;50.898;10.854;2022-11-20T04:55:14;98065.47;;;-10.41;100.00
65897;BME280;52677;50.898;10.854;2022-11-20T04:57:14;98057.19;;;-10.39;100.00
65897;BME280;52677;50.898;10.854;2022-11-20T04:59:14;98049.81;;;-10.27;100.00
65897;BME280;52677;50.898;10.854;2022-11-20T05:01:20;98050.06;;;-10.29;100.00
65897;BME280;52677;50.898;10.854;2022-11-20T05:03:21;98042.88;;;-10.18;100.00
65897;BME280;52677;50.898;10.854;2022-11-20T05:05:21;98042.09;;;-10.19;100.00
65897;BME280;52677;50.898;10.854;2022-11-20T05:07:21;98043.50;;;-10.11;100.00
65897;BME280;52677;50.898;10.854;2022-11-20T05:09:22;98050.75;;;-10.06;100.00
65897;BME280;52677;50.898;10.854;2022-11-20T05:11:22;98043.81;;;-10.02;100.00
65897;BME280;52677;50.898;10.854;2022-11-20T05:13:23;98040.66;;;-9.99;100.00
65897;BME280;52677;50.898;10.854;2022-11-20T05:15:23;98041.47;;;-9.94;100.00
65897;BME280;52677;50.898;10.854;2022-11-20T05:17:23;98042.22;;;-10.03;100.00
65897;BME280;52677;50.898;10.854;2022-11-20T05:19:24;98047.63;;;-9.93;100.00
65897;BME280;52677;50.898;10.854;2022-11-20T05:21:24;98054.06;;;-9.94;100.00
65897;BME280;52677;50.898;10.854;2022-11-20T05:23:25;98048.94;;;-10.01;100.00
65897;BME280;52677;50.898;10.854;2022-11-20T05:25:25;98048.84;;;-10.11;100.00
65897;BME280;52677;50.898;10.854;2022-11-20T05:27:26;98056.84;;;-10.16;100.00
65897;BME280;52677;50.898;10.854;2022-11-20T05:29:26;98059.00;;;-10.13;100.00
65897;BME280;52677;50.898;10.854;2022-11-20T05:31:27;98062.94;;;-10.21;100.00
65897;BME280;52677;50.898;10.854;2022-11-20T05:33:27;98054.72;;;-10.14;100.00
65897;BME280;52677;50.898;10.854;2022-11-20T05:35:27;98053.97;;;-10.04;100.00
65897;BME280;52677;50.898;10.854;2022-11-20T05:37:28;98044.34;;;-10.05;100.00
65897;BME280;52677;50.898;10.854;2022-11-20T05:39:28;98053.56;;;-9.91;100.00
65897;BME280;52677;50.898;10.854;2022-11-20T05:41:28;98050.56;;;-9.95;100.00
65897;BME280;52677;50.898;10.854;2022-11-20T05:43:32;98045.78;;;-9.93;100.00
65897;BME280;52677;50.898;10.854;2022-11-20T05:45:32;98057.81;;;-9.95;100.00
65897;BME280;52677;50.898;10.854;2022-11-20T05:47:33;98056.78;;;-9.89;100.00
65897;BME280;52677;50.898;10.854;2022-11-20T05:49:34;98056.84;;;-9.84;100.00
65897;BME280;52677;50.898;10.854;2022-11-20T05:51:34;98056.84;;;-9.79;100.00
65897;BME280;52677;50.898;10.854;2022-11-20T05:53:35;98055.34;;;-9.65;100.00
65897;BME280;52677;50.898;10.854;2022-11-20T05:55:36;98052.16;;;-9.62;100.00
65897;BME280;52677;50.898;10.854;2022-11-20T05:57:36;98054.06;;;-9.52;100.00
65897;BME280;52677;50.898;10.854;2022-11-20T05:59:37;98040.47;;;-9.45;100.00
65897;BME280;52677;50.898;10.854;2022-11-20T06:01:37;98044.25;;;-9.41;100.00
65897;BME280;52677;50.898;10.854;2022-11-20T06:03:38;98043.19;;;-9.40;100.00
65897;BME280;52677;50.898;10.854;2022-11-20T06:05:39;98041.56;;;-9.41;100.00
65897;BME280;52677;50.898;10.854;2022-11-20T06:07:39;98038.84;;;-9.46;100.00
65897;BME280;52677;50.898;10.854;2022-11-20T06:09:39;98040.72;;;-9.47;100.00
65897;BME280;52677;50.898;10.854;2022-11-20T06:11:40;98041.78;;;-9.48;100.00
65897;BME280;52677;50.898;10.854;2022-11-20T06:13:41;98035.09;;;-9.45;100.00
65897;BME280;52677;50.898;10.854;2022-11-20T06:15:41;98034.34;;;-9.36;100.00
65897;BME280;52677;50.898;10.854;2022-11-20T06:17:42;98041.66;;;-9.26;100.00
65897;BME280;52677;50.898;10.854;2022-11-20T06:19:42;98038.72;;;-9.19;100.00
65897;BME280;52677;50.898;10.854;2022-11-20T06:21:42;98036.66;;;-9.07;100.00
65897;BME280;52677;50.898;10.854;2022-11-20T06:23:43;98044.16;;;-9.09;100.00
65897;BME280;52677;50.898;10.854;2022-11-20T06:25:44;98051.94;;;-9.02;100.00
65897;BME280;52677;50.898;10.854;2022-11-20T06:27:44;98045.53;;;-9.01;100.00
65897;BME280;52677;50.898;10.854;2022-11-20T06:29:44;98035.84;;;-9.02;100.00
65897;BME280;52677;50.898;10.854;2022-11-20T06:31:45;98038.78;;;-9.04;100.00
65897;BME280;52677;50.898;10.854;2022-11-20T06:33:45;98034.75;;;-9.07;100.00
65897;BME280;52677;50.898;10.854;2022-11-20T06:35:46;98032.63;;;-9.10;100.00
65897;BME280;52677;50.898;10.854;2022-11-20T06:37:46;98028.88;;;-9.09;100.00
65897;BME280;52677;50.898;10.854;2022-11-20T06:39:46;98035.03;;;-9.08;100.00
65897;BME280;52677;50.898;10.854;2022-11-20T06:41:47;98016.28;;;-9.08;100.00
65897;BME280;52677;50.898;10.854;2022-11-20T06:43:48;98025.91;;;-9.07;100.00
65897;BME280;52677;50.898;10.854;2022-11-20T06:45:52;98020.31;;;-8.95;100.00
65897;BME280;52677;50.898;10.854;2022-11-20T06:47:53;98019.00;;;-8.93;100.00
65897;BME280;52677;50.898;10.854;2022-11-20T06:49:53;98017.94;;;-8.92;100.00
65897;BME280;52677;50.898;10.854;2022-11-20T06:51:53;98020.63;;;-8.87;100.00
65897;BME280;52677;50.898;10.854;2022-11-20T06:53:54;98016.63;;;-8.84;100.00
65897;BME280;52677;50.898;10.854;2022-11-20T06:55:55;98040.75;;;-8.84;100.00
65897;BME280;52677;50.898;10.854;2022-11-20T06:57:56;98047.47;;;-8.82;100.00
65897;BME280;52677;50.898;10.854;2022-11-20T06:59:56;98040.78;;;-8.74;100.00
65897;BME280;52677;50.898;10.854;2022-11-20T07:01:57;98056.88;;;-8.69;100.00
65897;BME280;52677;50.898;10.854;2022-11-20T07:03:57;98055.03;;;-8.63;100.00
65897;BME280;52677;50.898;10.854;2022-11-20T07:05:58;98045.63;;;-8.61;100.00
65897;BME280;52677;50.898;10.854;2022-11-20T07:08:00;98042.19;;;-8.51;100.00
65897;BME280;52677;50.898;10.854;2022-11-20T07:10:00;98039.50;;;-8.51;100.00
65897;BME280;52677;50.898;10.854;2022-11-20T07:12:00;98034.13;;;-8.46;100.00
65897;BME280;52677;50.898;10.854;2022-11-20T07:14:01;98030.66;;;-8.41;100.00
65897;BME280;52677;50.898;10.854;2022-11-20T07:16:03;98028.22;;;-8.33;100.00
65897;BME280;52677;50.898;10.854;2022-11-20T07:18:04;98025.53;;;-8.28;100.00
65897;BME280;52677;50.898;10.854;2022-11-20T07:20:04;98015.09;;;-8.24;100.00
65897;BME280;52677;50.898;10.854;2022-11-20T07:22:05;98036.31;;;-8.17;100.00
65897;BME280;52677;50.898;10.854;2022-11-20T07:24:05;98032.00;;;-8.13;100.00
65897;BME280;52677;50.898;10.854;2022-11-20T07:26:09;98026.09;;;-8.10;100.00
65897;BME280;52677;50.898;10.854;2022-11-20T07:28:10;98022.88;;;-8.07;100.00
65897;BME280;52677;50.898;10.854;2022-11-20T07:30:11;98012.66;;;-8.05;100.00
65897;BME280;52677;50.898;10.854;2022-11-20T07:32:12;98009.97;;;-7.95;100.00
65897;BME280;52677;50.898;10.854;2022-11-20T07:34:12;98016.16;;;-7.89;100.00
65897;BME280;52677;50.898;10.854;2022-11-20T07:36:12;98005.41;;;-7.84;100.00
65897;BME280;52677;50.898;10.854;2022-11-20T07:38:13;98005.13;;;-7.78;100.00
65897;BME280;52677;50.898;10.854;2022-11-20T07:40:14;98007.00;;;-7.73;100.00
65897;BME280;52677;50.898;10.854;2022-11-20T07:42:14;98016.66;;;-7.67;100.00
65897;BME280;52677;50.898;10.854;2022-11-20T07:44:14;98015.31;;;-7.59;100.00
65897;BME280;52677;50.898;10.854;2022-11-20T07:46:15;98007.50;;;-7.56;100.00
65897;BME280;52677;50.898;10.854;2022-11-20T07:48:15;98004.25;;;-7.48;100.00
65897;BME280;52677;50.898;10.854;2022-11-20T07:50:16;98010.72;;;-7.49;100.00
65897;BME280;52677;50.898;10.854;2022-11-20T07:52:17;98007.47;;;-7.46;100.00
65897;BME280;52677;50.898;10.854;2022-11-20T07:54:17;98002.66;;;-7.44;100.00
65897;BME280;52677;50.898;10.854;2022-11-20T07:56:17;98003.97;;;-7.41;100.00
65897;BME280;52677;50.898;10.854;2022-11-20T07:58:18;98005.31;;;-7.33;100.00
65897;BME280;52677;50.898;10.854;2022-11-20T08:00:20;97988.63;;;-7.30;100.00
65897;BME280;52677;50.898;10.854;2022-11-20T08:02:20;98007.97;;;-7.28;100.00
65897;BME280;52677;50.898;10.854;2022-11-20T08:04:20;97992.09;;;-7.25;100.00
65897;BME280;52677;50.898;10.854;2022-11-20T08:06:21;97996.69;;;-7.25;100.00
65897;BME280;52677;50.898;10.854;2022-11-20T08:08:22;97997.72;;;-7.21;100.00
65897;BME280;52677;50.898;10.854;2022-11-20T08:10:22;97999.31;;;-7.15;100.00
65897;BME280;52677;50.898;10.854;2022-11-20T08:12:23;97999.03;;;-7.09;100.00
65897;BME280;52677;50.898;10.854;2022-11-20T08:14:42;98000.06;;;-6.99;100.00
65897;BME280;52677;50.898;10.854;2022-11-20T08:16:45;98002.75;;;-6.94;100.00
65897;BME280;52677;50.898;10.854;2022-11-20T08:18:45;98004.06;;;-6.92;100.00
65897;BME280;52677;50.898;10.854;2022-11-20T08:20:46;97996.78;;;-6.86;100.00
65897;BME280;52677;50.898;10.854;2022-11-20T08:22:46;98004.56;;;-6.85;100.00
65897;BME280;52677;50.898;10.854;2022-11-20T08:24:47;98008.59;;;-6.82;100.00
65897;BME280;52677;50.898;10.854;2022-11-20T08:26:48;97999.44;;;-6.81;100.00
65897;BME280;52677;50.898;10.854;2022-11-20T08:28:48;98007.22;;;-6.80;100.00
65897;BME280;52677;50.898;10.854;2022-11-20T08:30:49;98008.81;;;-6.79;100.00
65897;BME280;52677;50.898;10.854;2022-11-20T08:32:50;98005.59;;;-6.75;100.00
65897;BME280;52677;50.898;10.854;2022-11-20T08:34:50;98005.59;;;-6.75;100.00
65897;BME280;52677;50.898;10.854;2022-11-20T08:36:50;98004.22;;;-6.73;100.00
65897;BME280;52677;50.898;10.854;2022-11-20T08:38:52;98009.31;;;-6.66;100.00
65897;BME280;52677;50.898;10.854;2022-11-20T08:40:56;98010.63;;;-6.59;100.00
65897;BME280;52677;50.898;10.854;2022-11-20T08:43:16;98014.63;;;-6.56;100.00
65897;BME280;52677;50.898;10.854;2022-11-20T08:45:17;98010.59;;;-6.54;100.00
65897;BME280;52677;50.898;10.854;2022-11-20T08:47:18;98010.84;;;-6.50;100.00
65897;BME280;52677;50.898;10.854;2022-11-20T08:49:18;98010.28;;;-6.47;100.00
65897;BME280;52677;50.898;10.854;2022-11-20T08:51:19;98015.34;;;-6.40;100.00
65897;BME280;52677;50.898;10.854;2022-11-20T08:53:20;98005.09;;;-6.38;100.00
65897;BME280;52677;50.898;10.854;2022-11-20T08:55:20;98016.13;;;-6.35;100.00
65897;BME280;52677;50.898;10.854;2022-11-20T08:57:20;98008.81;;;-6.29;100.00
65897;BME280;52677;50.898;10.854;2022-11-20T08:59:21;98022.25;;;-6.24;100.00
65897;BME280;52677;50.898;10.854;2022-11-20T09:01:23;98009.03;;;-6.20;100.00
65897;BME280;52677;50.898;10.854;2022-11-20T09:03:23;98015.69;;;-6.13;100.00
65897;BME280;52677;50.898;10.854;2022-11-20T09:05:24;98002.47;;;-6.09;100.00
65897;BME280;52677;50.898;10.854;2022-11-20T09:07:24;98000.88;;;-6.10;100.00
65897;BME280;52677;50.898;10.854;2022-11-20T09:09:25;98005.94;;;-6.04;100.00
65897;BME280;52677;50.898;10.854;2022-11-20T09:11:25;98003.44;;;-5.95;100.00
65897;BME280;52677;50.898;10.854;2022-11-20T09:13:27;98009.00;;;-5.86;100.00
65897;BME280;52677;50.898;10.854;2022-11-20T09:15:28;98002.75;;;-5.82;100.00
65897;BME280;52677;50.898;10.854;2022-11-20T09:17:28;98004.81;;;-5.74;100.00
65897;BME280;52677;50.898;10.854;2022-11-20T09:19:28;97996.41;;;-5.67;100.00
65897;BME280;52677;50.898;10.854;2022-11-20T09:21:29;97997.44;;;-5.63;100.00
65897;BME280;52677;50.898;10.854;2022-11-20T09:23:34;98000.69;;;-5.61;100.00
65897;BME280;52677;50.898;10.854;2022-11-20T09:25:35;97996.09;;;-5.60;100.00
65897;BME280;52677;50.898;10.854;2022-11-20T09:27:35;97999.88;;;-5.61;100.00
65897;BME280;52677;50.898;10.854;2022-11-20T09:29:36;98006.34;;;-5.62;100.00
65897;BME280;52677;50.898;10.854;2022-11-20T09:31:36;97995.28;;;-5.61;100.00
65897;BME280;52677;50.898;10.854;2022-11-20T09:33:36;97989.56;;;-5.54;100.00
65897;BME280;52677;50.898;10.854;2022-11-20T09:35:37;98000.88;;;-5.52;100.00
65897;BME280;52677;50.898;10.854;2022-11-20T09:37:37;97996.19;;;-5.47;100.00
65897;BME280;52677;50.898;10.854;2022-11-20T09:39:38;97995.88;;;-5.40;100.00
65897;BME280;52677;50.898;10.854;2022-11-20T09:44:27;97991.41;;;-5.26;100.00
65897;BME280;52677;50.898;10.854;2022-11-20T09:46:56;97991.06;;;-5.19;100.00
65897;BME280;52677;50.898;10.854;2022-11-20T09:51:43;97983.94;;;-5.10;100.00
65897;BME280;52677;50.898;10.854;2022-11-20T09:55:54;97985.19;;;-5.02;100.00
65897;BME280;52677;50.898;10.854;2022-11-20T09:57:55;97987.56;;;-4.96;100.00
65897;BME280;52677;50.898;10.854;2022-11-20T09:59:58;97985.06;;;-4.92;100.00
65897;BME280;52677;50.898;10.854;2022-11-20T10:02:01;97971.53;;;-4.87;100.00
65897;BME280;52677;50.898;10.854;2022-11-20T10:04:23;97989.47;;;-4.77;100.00
65897;BME280;52677;50.898;10.854;2022-11-20T10:06:30;97982.19;;;-4.77;100.00
65897;BME280;52677;50.898;10.854;2022-11-20T10:10:58;97991.72;;;-4.66;100.00
65897;BME280;52677;50.898;10.854;2022-11-20T10:15:40;97978.22;;;-4.66;100.00
65897;BME280;52677;50.898;10.854;2022-11-20T10:18:10;97982.53;;;-4.65;100.00
65897;BME280;52677;50.898;10.854;2022-11-20T10:20:18;97976.03;;;-4.64;100.00
65897;BME280;52677;50.898;10.854;2022-11-20T10:24:52;97978.38;;;-4.57;100.00
65897;BME280;52677;50.898;10.854;2022-11-20T10:27:02;97971.81;;;-4.51;100.00
65897;BME280;52677;50.898;10.854;2022-11-20T10:29:28;97970.66;;;-4.45;100.00
65897;BME280;52677;50.898;10.854;2022-11-20T10:31:52;97975.59;;;-4.33;100.00
65897;BME280;52677;50.898;10.854;2022-11-20T10:33:57;97965.03;;;-4.30;100.00
65897;BME280;52677;50.898;10.854;2022-11-20T10:36:23;97957.06;;;-4.21;100.00
65897;BME280;52677;50.898;10.854;2022-11-20T10:38:34;97957.75;;;-4.15;100.00
65897;BME280;52677;50.898;10.854;2022-11-20T10:40:40;97958.81;;;-4.11;100.00
65897;BME280;52677;50.898;10.854;2022-11-20T10:42:53;97961.41;;;-4.06;100.00
65897;BME280;52677;50.898;10.854;2022-11-20T10:45:09;97960.03;;;-4.04;100.00
65897;BME280;52677;50.898;10.854;2022-11-20T10:47:15;97964.84;;;-4.01;100.00